sensor_id;sensor_type;location;lat;lon;timestamp;P1;durP1;ratioP1;P2;durP2;ratioP2
20743;SDS011;56303;52.160;-0.428;2023-01-29T00:02:08;20.40;;;16.63;;
20743;SDS011;56303;52.160;-0.428;2023-01-29T00:04:35;18.77;;;16.00;;
20743;SDS011;56303;52.160;-0.428;2023-01-29T00:07:02;20.47;;;15.30;;
20743;SDS011;56303;52.160;-0.428;2023-01-29T00:09:29;19.73;;;15.37;;
20743;SDS011;56303;52.160;-0.428;2023-01-29T00:11:57;19.53;;;16.13;;
20743;SDS011;56303;52.160;-0.428;2023-01-29T00:14:24;19.30;;;15.53;;
20743;SDS011;56303;52.160;-0.428;2023-01-29T00:16:52;20.70;;;16.33;;
20743;SDS011;56303;52.160;-0.428;2023-01-29T00:19:20;20.13;;;15.77;;
20743;SDS011;56303;52.160;-0.428;2023-01-29T00:21:46;17.97;;;14.87;;
20743;SDS011;56303;52.160;-0.428;2023-01-29T00:24:13;17.90;;;14.60;;
20743;SDS011;56303;52.160;-0.428;2023-01-29T00:26:40;19.00;;;14.50;;
20743;SDS011;56303;52.160;-0.428;2023-01-29T00:29:08;21.33;;;15.00;;
20743;SDS011;56303;52.160;-0.428;2023-01-29T00:31:35;18.07;;;15.20;;
20743;SDS011;56303;52.160;-0.428;2023-01-29T00:34:02;19.50;;;16.10;;
20743;SDS011;56303;52.160;-0.428;2023-01-29T00:36:29;20.73;;;16.03;;
20743;SDS011;56303;52.160;-0.428;2023-01-29T00:38:56;21.73;;;16.53;;
20743;SDS011;56303;52.160;-0.428;2023-01-29T00:41:25;21.23;;;16.80;;
20743;SDS011;56303;52.160;-0.428;2023-01-29T00:44:12;19.30;;;15.57;;
20743;SDS011;56303;52.160;-0.428;2023-01-29T00:46:57;24.97;;;16.83;;
20743;SDS011;56303;52.160;-0.428;2023-01-29T00:49:26;22.13;;;16.53;;
20743;SDS011;56303;52.160;-0.428;2023-01-29T00:51:53;21.23;;;15.57;;
20743;SDS011;56303;52.160;-0.428;2023-01-29T00:54:38;23.27;;;17.67;;
20743;SDS011;56303;52.160;-0.428;2023-01-29T00:57:08;24.47;;;17.93;;
20743;SDS011;56303;52.160;-0.428;2023-01-29T00:59:35;22.00;;;17.77;;
20743;SDS011;56303;52.160;-0.428;2023-01-29T01:02:02;25.97;;;18.17;;
20743;SDS011;56303;52.160;-0.428;2023-01-29T01:04:47;20.07;;;15.97;;
20743;SDS011;56303;52.160;-0.428;2023-01-29T01:07:14;22.20;;;17.43;;
20743;SDS011;56303;52.160;-0.428;2023-01-29T01:09:41;21.27;;;18.07;;
20743;SDS011;56303;52.160;-0.428;2023-01-29T01:12:26;23.03;;;17.83;;
20743;SDS011;56303;52.160;-0.428;2023-01-29T01:14:54;23.83;;;18.13;;
20743;SDS011;56303;52.160;-0.428;2023-01-29T01:17:21;23.83;;;19.30;;
20743;SDS011;56303;52.160;-0.428;2023-01-29T01:19:48;23.90;;;18.00;;
20743;SDS011;56303;52.160;-0.428;2023-01-29T01:22:15;23.93;;;17.70;;
20743;SDS011;56303;52.160;-0.428;2023-01-29T01:24:42;25.50;;;18.93;;
20743;SDS011;56303;52.160;-0.428;2023-01-29T01:27:08;21.70;;;17.07;;
20743;SDS011;56303;52.160;-0.428;2023-01-29T01:29:35;25.87;;;20.70;;
20743;SDS011;56303;52.160;-0.428;2023-01-29T01:32:02;23.73;;;18.30;;
20743;SDS011;56303;52.160;-0.428;2023-01-29T01:34:29;26.60;;;19.67;;
20743;SDS011;56303;52.160;-0.428;2023-01-29T01:36:56;22.87;;;17.67;;
20743;SDS011;56303;52.160;-0.428;2023-01-29T01:39:23;22.80;;;18.17;;
20743;SDS011;56303;52.160;-0.428;2023-01-29T01:41:52;26.37;;;18.53;;
20743;SDS011;56303;52.160;-0.428;2023-01-29T01:47:23;25.50;;;16.97;;
20743;SDS011;56303;52.160;-0.428;2023-01-29T01:49:55;22.37;;;18.10;;
20743;SDS011;56303;52.160;-0.428;2023-01-29T01:52:29;23.30;;;17.40;;
20743;SDS011;56303;52.160;-0.428;2023-01-29T01:54:57;22.77;;;16.93;;
20743;SDS011;56303;52.160;-0.428;2023-01-29T01:57:25;25.53;;;17.37;;
20743;SDS011;56303;52.160;-0.428;2023-01-29T01:59:57;22.87;;;17.77;;
20743;SDS011;56303;52.160;-0.428;2023-01-29T02:02:29;22.27;;;15.73;;
20743;SDS011;56303;52.160;-0.428;2023-01-29T02:05:14;22.00;;;16.03;;
20743;SDS011;56303;52.160;-0.428;2023-01-29T02:07:59;20.73;;;16.37;;
20743;SDS011;56303;52.160;-0.428;2023-01-29T02:10:45;23.47;;;17.17;;
20743;SDS011;56303;52.160;-0.428;2023-01-29T02:13:14;21.33;;;16.07;;
20743;SDS011;56303;52.160;-0.428;2023-01-29T02:15:42;21.97;;;16.67;;
20743;SDS011;56303;52.160;-0.428;2023-01-29T02:18:18;20.20;;;15.47;;
20743;SDS011;56303;52.160;-0.428;2023-01-29T02:20:48;19.70;;;14.77;;
20743;SDS011;56303;52.160;-0.428;2023-01-29T02:23:40;20.97;;;15.37;;
20743;SDS011;56303;52.160;-0.428;2023-01-29T02:26:35;19.00;;;14.13;;
20743;SDS011;56303;52.160;-0.428;2023-01-29T02:29:30;17.23;;;13.53;;
20743;SDS011;56303;52.160;-0.428;2023-01-29T02:32:18;19.80;;;14.90;;
20743;SDS011;56303;52.160;-0.428;2023-01-29T02:38:32;19.70;;;14.27;;
20743;SDS011;56303;52.160;-0.428;2023-01-29T02:41:05;17.97;;;13.00;;
20743;SDS011;56303;52.160;-0.428;2023-01-29T02:46:38;17.87;;;13.70;;
20743;SDS011;56303;52.160;-0.428;2023-01-29T02:52:22;17.10;;;13.33;;
20743;SDS011;56303;52.160;-0.428;2023-01-29T02:54:55;18.43;;;12.97;;
20743;SDS011;56303;52.160;-0.428;2023-01-29T02:57:33;17.27;;;12.67;;
20743;SDS011;56303;52.160;-0.428;2023-01-29T03:05:12;15.17;;;10.67;;
20743;SDS011;56303;52.160;-0.428;2023-01-29T03:07:47;13.73;;;11.00;;
20743;SDS011;56303;52.160;-0.428;2023-01-29T03:10:22;12.10;;;9.87;;
20743;SDS011;56303;52.160;-0.428;2023-01-29T03:12:58;13.23;;;10.50;;
20743;SDS011;56303;52.160;-0.428;2023-01-29T03:15:30;12.43;;;9.40;;
20743;SDS011;56303;52.160;-0.428;2023-01-29T03:18:05;12.27;;;9.70;;
20743;SDS011;56303;52.160;-0.428;2023-01-29T03:20:39;11.57;;;9.23;;
20743;SDS011;56303;52.160;-0.428;2023-01-29T03:23:16;13.50;;;8.87;;
20743;SDS011;56303;52.160;-0.428;2023-01-29T03:26:08;12.03;;;8.73;;
20743;SDS011;56303;52.160;-0.428;2023-01-29T03:28:53;12.00;;;9.23;;
20743;SDS011;56303;52.160;-0.428;2023-01-29T03:31:38;12.13;;;9.67;;
20743;SDS011;56303;52.160;-0.428;2023-01-29T03:34:24;11.97;;;9.60;;
20743;SDS011;56303;52.160;-0.428;2023-01-29T03:37:07;13.20;;;10.07;;
20743;SDS011;56303;52.160;-0.428;2023-01-29T03:39:41;10.63;;;9.10;;
20743;SDS011;56303;52.160;-0.428;2023-01-29T03:45:12;11.93;;;9.27;;
20743;SDS011;56303;52.160;-0.428;2023-01-29T03:53:49;11.40;;;8.90;;
20743;SDS011;56303;52.160;-0.428;2023-01-29T04:00:08;12.60;;;8.47;;
20743;SDS011;56303;52.160;-0.428;2023-01-29T04:02:21;12.27;;;8.77;;
20743;SDS011;56303;52.160;-0.428;2023-01-29T04:04:56;9.47;;;8.00;;
20743;SDS011;56303;52.160;-0.428;2023-01-29T04:07:35;9.10;;;7.33;;
20743;SDS011;56303;52.160;-0.428;2023-01-29T04:10:15;9.77;;;7.57;;
20743;SDS011;56303;52.160;-0.428;2023-01-29T04:15:17;9.00;;;6.60;;
20743;SDS011;56303;52.160;-0.428;2023-01-29T04:17:48;8.70;;;6.77;;
20743;SDS011;56303;52.160;-0.428;2023-01-29T04:20:17;8.73;;;6.50;;
20743;SDS011;56303;52.160;-0.428;2023-01-29T04:22:46;9.30;;;6.23;;
20743;SDS011;56303;52.160;-0.428;2023-01-29T04:25:15;7.33;;;6.23;;
20743;SDS011;56303;52.160;-0.428;2023-01-29T04:31:01;9.33;;;6.40;;
20743;SDS011;56303;52.160;-0.428;2023-01-29T04:39:33;8.77;;;6.63;;
20743;SDS011;56303;52.160;-0.428;2023-01-29T04:42:23;8.60;;;7.10;;
20743;SDS011;56303;52.160;-0.428;2023-01-29T04:58:10;10.33;;;8.73;;
20743;SDS011;56303;52.160;-0.428;2023-01-29T05:00:42;10.80;;;8.70;;
20743;SDS011;56303;52.160;-0.428;2023-01-29T05:03:14;14.50;;;9.23;;
20743;SDS011;56303;52.160;-0.428;2023-01-29T05:05:43;12.63;;;9.93;;
20743;SDS011;56303;52.160;-0.428;2023-01-29T05:08:15;12.57;;;10.10;;
20743;SDS011;56303;52.160;-0.428;2023-01-29T05:10:48;11.40;;;10.00;;
20743;SDS011;56303;52.160;-0.428;2023-01-29T05:13:16;13.10;;;10.60;;
20743;SDS011;56303;52.160;-0.428;2023-01-29T05:15:48;14.67;;;10.93;;
20743;SDS011;56303;52.160;-0.428;2023-01-29T05:18:22;12.87;;;10.87;;
20743;SDS011;56303;52.160;-0.428;2023-01-29T05:20:49;14.43;;;11.07;;
20743;SDS011;56303;52.160;-0.428;2023-01-29T05:23:19;15.17;;;11.47;;
20743;SDS011;56303;52.160;-0.428;2023-01-29T05:25:47;13.53;;;11.47;;
20743;SDS011;56303;52.160;-0.428;2023-01-29T05:28:15;15.93;;;12.50;;
20743;SDS011;56303;52.160;-0.428;2023-01-29T05:30:46;16.13;;;11.93;;
20743;SDS011;56303;52.160;-0.428;2023-01-29T05:33:15;16.00;;;12.50;;
20743;SDS011;56303;52.160;-0.428;2023-01-29T05:35:53;15.33;;;12.60;;
20743;SDS011;56303;52.160;-0.428;2023-01-29T05:38:21;17.97;;;13.27;;
20743;SDS011;56303;52.160;-0.428;2023-01-29T05:40:48;14.40;;;11.37;;
20743;SDS011;56303;52.160;-0.428;2023-01-29T05:43:16;15.50;;;13.33;;
20743;SDS011;56303;52.160;-0.428;2023-01-29T05:46:17;18.53;;;13.37;;
20743;SDS011;56303;52.160;-0.428;2023-01-29T05:48:37;14.97;;;12.17;;
20743;SDS011;56303;52.160;-0.428;2023-01-29T05:51:04;15.23;;;12.77;;
20743;SDS011;56303;52.160;-0.428;2023-01-29T05:53:31;14.73;;;12.70;;
20743;SDS011;56303;52.160;-0.428;2023-01-29T05:56:02;20.13;;;13.77;;
20743;SDS011;56303;52.160;-0.428;2023-01-29T05:58:30;18.23;;;13.47;;
20743;SDS011;56303;52.160;-0.428;2023-01-29T06:00:57;17.20;;;13.80;;
20743;SDS011;56303;52.160;-0.428;2023-01-29T06:03:40;17.17;;;13.10;;
20743;SDS011;56303;52.160;-0.428;2023-01-29T06:06:07;15.60;;;13.40;;
20743;SDS011;56303;52.160;-0.428;2023-01-29T06:08:34;18.77;;;13.87;;
20743;SDS011;56303;52.160;-0.428;2023-01-29T06:11:01;19.90;;;14.27;;
20743;SDS011;56303;52.160;-0.428;2023-01-29T06:13:28;16.90;;;13.80;;
20743;SDS011;56303;52.160;-0.428;2023-01-29T06:15:55;16.77;;;13.23;;
20743;SDS011;56303;52.160;-0.428;2023-01-29T06:18:22;17.70;;;14.03;;
20743;SDS011;56303;52.160;-0.428;2023-01-29T06:20:49;18.60;;;12.90;;
20743;SDS011;56303;52.160;-0.428;2023-01-29T06:23:15;18.93;;;13.50;;
20743;SDS011;56303;52.160;-0.428;2023-01-29T06:25:43;15.67;;;12.67;;
20743;SDS011;56303;52.160;-0.428;2023-01-29T06:28:10;18.47;;;13.77;;
20743;SDS011;56303;52.160;-0.428;2023-01-29T06:30:36;17.67;;;12.40;;
20743;SDS011;56303;52.160;-0.428;2023-01-29T06:33:03;17.20;;;12.73;;
20743;SDS011;56303;52.160;-0.428;2023-01-29T06:35:30;16.80;;;12.10;;
20743;SDS011;56303;52.160;-0.428;2023-01-29T06:37:57;15.53;;;12.50;;
20743;SDS011;56303;52.160;-0.428;2023-01-29T06:40:23;15.70;;;13.20;;
20743;SDS011;56303;52.160;-0.428;2023-01-29T06:42:50;16.00;;;12.27;;
20743;SDS011;56303;52.160;-0.428;2023-01-29T06:45:17;17.27;;;12.70;;
20743;SDS011;56303;52.160;-0.428;2023-01-29T06:47:44;15.80;;;12.77;;
20743;SDS011;56303;52.160;-0.428;2023-01-29T06:50:11;17.10;;;12.60;;
20743;SDS011;56303;52.160;-0.428;2023-01-29T06:52:37;16.97;;;12.33;;
20743;SDS011;56303;52.160;-0.428;2023-01-29T06:55:04;17.50;;;13.03;;
20743;SDS011;56303;52.160;-0.428;2023-01-29T06:57:32;16.33;;;12.80;;
20743;SDS011;56303;52.160;-0.428;2023-01-29T06:59:58;17.60;;;12.87;;
20743;SDS011;56303;52.160;-0.428;2023-01-29T07:02:25;16.83;;;12.73;;
20743;SDS011;56303;52.160;-0.428;2023-01-29T07:04:52;17.93;;;12.70;;
20743;SDS011;56303;52.160;-0.428;2023-01-29T07:07:19;18.00;;;13.20;;
20743;SDS011;56303;52.160;-0.428;2023-01-29T07:09:46;21.53;;;14.23;;
20743;SDS011;56303;52.160;-0.428;2023-01-29T07:12:12;17.37;;;13.87;;
20743;SDS011;56303;52.160;-0.428;2023-01-29T07:14:39;16.03;;;12.90;;
20743;SDS011;56303;52.160;-0.428;2023-01-29T07:17:06;16.93;;;13.40;;
20743;SDS011;56303;52.160;-0.428;2023-01-29T07:19:33;16.03;;;13.63;;
20743;SDS011;56303;52.160;-0.428;2023-01-29T07:21:59;17.73;;;13.80;;
20743;SDS011;56303;52.160;-0.428;2023-01-29T07:24:28;20.17;;;14.53;;
20743;SDS011;56303;52.160;-0.428;2023-01-29T07:26:55;17.80;;;13.87;;
20743;SDS011;56303;52.160;-0.428;2023-01-29T07:29:22;18.40;;;13.13;;
20743;SDS011;56303;52.160;-0.428;2023-01-29T07:31:49;16.13;;;13.10;;
20743;SDS011;56303;52.160;-0.428;2023-01-29T07:34:16;17.30;;;13.43;;
20743;SDS011;56303;52.160;-0.428;2023-01-29T07:36:43;16.03;;;14.03;;
20743;SDS011;56303;52.160;-0.428;2023-01-29T07:39:09;15.33;;;13.70;;
20743;SDS011;56303;52.160;-0.428;2023-01-29T07:41:36;15.60;;;11.90;;
20743;SDS011;56303;52.160;-0.428;2023-01-29T07:44:03;18.93;;;13.30;;
20743;SDS011;56303;52.160;-0.428;2023-01-29T07:46:30;16.17;;;12.97;;
20743;SDS011;56303;52.160;-0.428;2023-01-29T07:48:57;15.83;;;12.57;;
20743;SDS011;56303;52.160;-0.428;2023-01-29T07:51:24;17.27;;;13.30;;
20743;SDS011;56303;52.160;-0.428;2023-01-29T07:53:51;16.17;;;13.07;;
20743;SDS011;56303;52.160;-0.428;2023-01-29T07:56:18;16.97;;;12.33;;
20743;SDS011;56303;52.160;-0.428;2023-01-29T07:58:45;15.43;;;11.67;;
20743;SDS011;56303;52.160;-0.428;2023-01-29T08:01:12;18.57;;;12.70;;
20743;SDS011;56303;52.160;-0.428;2023-01-29T08:03:39;14.97;;;11.80;;
20743;SDS011;56303;52.160;-0.428;2023-01-29T08:06:05;16.73;;;12.43;;
20743;SDS011;56303;52.160;-0.428;2023-01-29T08:08:32;14.87;;;11.43;;
20743;SDS011;56303;52.160;-0.428;2023-01-29T08:11:00;15.63;;;12.67;;
20743;SDS011;56303;52.160;-0.428;2023-01-29T08:13:29;15.37;;;12.00;;
20743;SDS011;56303;52.160;-0.428;2023-01-29T08:15:59;15.50;;;12.53;;
20743;SDS011;56303;52.160;-0.428;2023-01-29T08:18:28;15.63;;;12.87;;
20743;SDS011;56303;52.160;-0.428;2023-01-29T08:21:00;16.43;;;13.20;;
20743;SDS011;56303;52.160;-0.428;2023-01-29T08:23:27;15.00;;;13.00;;
20743;SDS011;56303;52.160;-0.428;2023-01-29T08:25:54;15.70;;;13.00;;
20743;SDS011;56303;52.160;-0.428;2023-01-29T08:28:21;15.07;;;12.27;;
20743;SDS011;56303;52.160;-0.428;2023-01-29T08:30:48;16.53;;;12.90;;
20743;SDS011;56303;52.160;-0.428;2023-01-29T08:33:15;15.27;;;12.03;;
20743;SDS011;56303;52.160;-0.428;2023-01-29T08:35:49;15.13;;;11.70;;
20743;SDS011;56303;52.160;-0.428;2023-01-29T08:38:16;15.13;;;11.67;;
20743;SDS011;56303;52.160;-0.428;2023-01-29T08:40:43;16.10;;;12.37;;
20743;SDS011;56303;52.160;-0.428;2023-01-29T08:43:11;15.17;;;12.63;;
20743;SDS011;56303;52.160;-0.428;2023-01-29T08:45:39;15.83;;;12.50;;
20743;SDS011;56303;52.160;-0.428;2023-01-29T08:48:08;15.90;;;11.80;;
20743;SDS011;56303;52.160;-0.428;2023-01-29T08:50:35;15.97;;;12.07;;
20743;SDS011;56303;52.160;-0.428;2023-01-29T08:53:03;18.90;;;13.40;;
20743;SDS011;56303;52.160;-0.428;2023-01-29T08:55:36;18.90;;;12.93;;
20743;SDS011;56303;52.160;-0.428;2023-01-29T08:58:05;17.70;;;12.77;;
20743;SDS011;56303;52.160;-0.428;2023-01-29T09:00:33;16.27;;;12.57;;
20743;SDS011;56303;52.160;-0.428;2023-01-29T09:03:00;17.30;;;13.97;;
20743;SDS011;56303;52.160;-0.428;2023-01-29T09:05:28;20.27;;;14.33;;
20743;SDS011;56303;52.160;-0.428;2023-01-29T09:07:56;18.67;;;13.67;;
20743;SDS011;56303;52.160;-0.428;2023-01-29T09:10:24;18.10;;;14.10;;
20743;SDS011;56303;52.160;-0.428;2023-01-29T09:12:51;19.73;;;13.13;;
20743;SDS011;56303;52.160;-0.428;2023-01-29T09:15:17;19.93;;;13.93;;
20743;SDS011;56303;52.160;-0.428;2023-01-29T09:17:45;20.17;;;14.80;;
20743;SDS011;56303;52.160;-0.428;2023-01-29T09:20:12;19.50;;;13.30;;
20743;SDS011;56303;52.160;-0.428;2023-01-29T09:22:39;21.63;;;13.93;;
20743;SDS011;56303;52.160;-0.428;2023-01-29T09:25:06;20.47;;;14.80;;
20743;SDS011;56303;52.160;-0.428;2023-01-29T09:27:34;20.23;;;14.13;;
20743;SDS011;56303;52.160;-0.428;2023-01-29T09:30:02;23.77;;;14.70;;
20743;SDS011;56303;52.160;-0.428;2023-01-29T09:32:30;20.63;;;14.30;;
20743;SDS011;56303;52.160;-0.428;2023-01-29T09:35:19;18.33;;;13.00;;
20743;SDS011;56303;52.160;-0.428;2023-01-29T09:37:47;16.77;;;12.10;;
20743;SDS011;56303;52.160;-0.428;2023-01-29T09:42:59;18.17;;;13.07;;
20743;SDS011;56303;52.160;-0.428;2023-01-29T09:45:31;21.13;;;12.47;;
20743;SDS011;56303;52.160;-0.428;2023-01-29T09:47:59;19.87;;;13.03;;
20743;SDS011;56303;52.160;-0.428;2023-01-29T09:53:04;18.67;;;13.20;;
20743;SDS011;56303;52.160;-0.428;2023-01-29T09:55:47;20.10;;;13.77;;
20743;SDS011;56303;52.160;-0.428;2023-01-29T10:01:21;21.70;;;13.77;;
20743;SDS011;56303;52.160;-0.428;2023-01-29T10:04:03;21.23;;;14.03;;
20743;SDS011;56303;52.160;-0.428;2023-01-29T10:06:48;21.87;;;13.07;;
20743;SDS011;56303;52.160;-0.428;2023-01-29T10:17:14;19.70;;;12.97;;
20743;SDS011;56303;52.160;-0.428;2023-01-29T10:20:14;20.23;;;12.93;;
20743;SDS011;56303;52.160;-0.428;2023-01-29T10:25:48;16.20;;;10.87;;
20743;SDS011;56303;52.160;-0.428;2023-01-29T10:30:45;18.37;;;11.60;;
20743;SDS011;56303;52.160;-0.428;2023-01-29T10:33:21;17.17;;;12.03;;
20743;SDS011;56303;52.160;-0.428;2023-01-29T10:35:57;15.77;;;10.40;;
20743;SDS011;56303;52.160;-0.428;2023-01-29T10:38:33;18.63;;;11.20;;
20743;SDS011;56303;52.160;-0.428;2023-01-29T10:41:11;16.27;;;11.00;;
20743;SDS011;56303;52.160;-0.428;2023-01-29T11:00:45;16.37;;;10.93;;
20743;SDS011;56303;52.160;-0.428;2023-01-29T11:03:14;17.63;;;10.83;;
20743;SDS011;56303;52.160;-0.428;2023-01-29T11:08:33;15.93;;;11.17;;
20743;SDS011;56303;52.160;-0.428;2023-01-29T11:11:06;15.00;;;9.83;;
20743;SDS011;56303;52.160;-0.428;2023-01-29T11:13:37;13.87;;;10.30;;
20743;SDS011;56303;52.160;-0.428;2023-01-29T11:16:12;13.13;;;9.20;;
20743;SDS011;56303;52.160;-0.428;2023-01-29T11:18:58;13.80;;;9.87;;
20743;SDS011;56303;52.160;-0.428;2023-01-29T11:21:27;12.70;;;8.37;;
20743;SDS011;56303;52.160;-0.428;2023-01-29T11:26:51;11.83;;;7.70;;
20743;SDS011;56303;52.160;-0.428;2023-01-29T11:29:40;11.90;;;8.10;;
20743;SDS011;56303;52.160;-0.428;2023-01-29T11:35:30;12.07;;;8.20;;
20743;SDS011;56303;52.160;-0.428;2023-01-29T11:37:41;9.53;;;7.30;;
20743;SDS011;56303;52.160;-0.428;2023-01-29T11:43:10;11.47;;;7.83;;
20743;SDS011;56303;52.160;-0.428;2023-01-29T11:45:54;10.63;;;7.70;;
20743;SDS011;56303;52.160;-0.428;2023-01-29T11:48:42;9.30;;;7.70;;
20743;SDS011;56303;52.160;-0.428;2023-01-29T11:51:20;10.90;;;7.50;;
20743;SDS011;56303;52.160;-0.428;2023-01-29T11:53:52;12.10;;;8.33;;
20743;SDS011;56303;52.160;-0.428;2023-01-29T11:56:33;9.97;;;7.63;;
20743;SDS011;56303;52.160;-0.428;2023-01-29T11:59:19;9.57;;;7.47;;
20743;SDS011;56303;52.160;-0.428;2023-01-29T12:02:10;9.17;;;6.60;;
20743;SDS011;56303;52.160;-0.428;2023-01-29T12:04:53;9.93;;;6.87;;
20743;SDS011;56303;52.160;-0.428;2023-01-29T12:07:31;9.93;;;6.90;;
20743;SDS011;56303;52.160;-0.428;2023-01-29T12:10:00;8.37;;;5.83;;
20743;SDS011;56303;52.160;-0.428;2023-01-29T12:12:28;8.77;;;6.03;;
20743;SDS011;56303;52.160;-0.428;2023-01-29T12:17:34;9.33;;;6.30;;
20743;SDS011;56303;52.160;-0.428;2023-01-29T12:20:14;7.93;;;6.00;;
20743;SDS011;56303;52.160;-0.428;2023-01-29T12:22:55;8.73;;;6.73;;
20743;SDS011;56303;52.160;-0.428;2023-01-29T12:31:05;8.20;;;6.23;;
20743;SDS011;56303;52.160;-0.428;2023-01-29T12:36:27;6.93;;;5.60;;
20743;SDS011;56303;52.160;-0.428;2023-01-29T12:39:03;8.27;;;6.03;;
20743;SDS011;56303;52.160;-0.428;2023-01-29T12:44:34;7.37;;;5.17;;
20743;SDS011;56303;52.160;-0.428;2023-01-29T12:47:14;5.77;;;4.53;;
20743;SDS011;56303;52.160;-0.428;2023-01-29T12:50:13;6.00;;;4.40;;
20743;SDS011;56303;52.160;-0.428;2023-01-29T12:52:49;6.00;;;4.33;;
20743;SDS011;56303;52.160;-0.428;2023-01-29T12:55:20;5.67;;;4.03;;
20743;SDS011;56303;52.160;-0.428;2023-01-29T12:58:00;6.47;;;4.10;;
20743;SDS011;56303;52.160;-0.428;2023-01-29T13:00:33;5.70;;;3.73;;
20743;SDS011;56303;52.160;-0.428;2023-01-29T13:06:29;6.30;;;3.77;;
20743;SDS011;56303;52.160;-0.428;2023-01-29T13:09:05;4.17;;;3.30;;
20743;SDS011;56303;52.160;-0.428;2023-01-29T13:14:35;4.67;;;3.50;;
20743;SDS011;56303;52.160;-0.428;2023-01-29T13:17:22;8.37;;;3.60;;
20743;SDS011;56303;52.160;-0.428;2023-01-29T13:19:50;5.30;;;3.60;;
20743;SDS011;56303;52.160;-0.428;2023-01-29T13:22:33;4.60;;;3.50;;
20743;SDS011;56303;52.160;-0.428;2023-01-29T13:25:03;4.43;;;2.77;;
20743;SDS011;56303;52.160;-0.428;2023-01-29T13:27:32;4.57;;;3.47;;
20743;SDS011;56303;52.160;-0.428;2023-01-29T13:30:00;4.37;;;3.07;;
20743;SDS011;56303;52.160;-0.428;2023-01-29T13:32:29;7.90;;;3.63;;
20743;SDS011;56303;52.160;-0.428;2023-01-29T13:35:00;5.57;;;3.63;;
20743;SDS011;56303;52.160;-0.428;2023-01-29T13:37:33;4.87;;;3.60;;
20743;SDS011;56303;52.160;-0.428;2023-01-29T13:40:04;5.67;;;4.03;;
20743;SDS011;56303;52.160;-0.428;2023-01-29T13:45:05;5.73;;;4.23;;
20743;SDS011;56303;52.160;-0.428;2023-01-29T13:47:35;5.83;;;4.07;;
20743;SDS011;56303;52.160;-0.428;2023-01-29T13:50:08;5.40;;;4.63;;
20743;SDS011;56303;52.160;-0.428;2023-01-29T13:52:56;5.80;;;4.10;;
20743;SDS011;56303;52.160;-0.428;2023-01-29T13:55:29;5.80;;;4.10;;
20743;SDS011;56303;52.160;-0.428;2023-01-29T13:58:01;6.90;;;3.80;;
20743;SDS011;56303;52.160;-0.428;2023-01-29T14:07:59;6.27;;;4.00;;
20743;SDS011;56303;52.160;-0.428;2023-01-29T14:10:32;5.53;;;3.73;;
20743;SDS011;56303;52.160;-0.428;2023-01-29T14:15:31;5.03;;;3.73;;
20743;SDS011;56303;52.160;-0.428;2023-01-29T14:23:30;5.57;;;3.97;;
20743;SDS011;56303;52.160;-0.428;2023-01-29T14:26:01;4.53;;;3.53;;
20743;SDS011;56303;52.160;-0.428;2023-01-29T14:28:31;5.37;;;3.97;;
20743;SDS011;56303;52.160;-0.428;2023-01-29T14:30:59;5.60;;;4.13;;
20743;SDS011;56303;52.160;-0.428;2023-01-29T14:36:07;5.20;;;3.80;;
20743;SDS011;56303;52.160;-0.428;2023-01-29T14:38:37;4.93;;;3.67;;
20743;SDS011;56303;52.160;-0.428;2023-01-29T14:41:20;6.83;;;4.47;;
20743;SDS011;56303;52.160;-0.428;2023-01-29T14:49:54;5.77;;;4.33;;
20743;SDS011;56303;52.160;-0.428;2023-01-29T14:54:59;5.13;;;4.07;;
20743;SDS011;56303;52.160;-0.428;2023-01-29T14:57:29;5.43;;;3.97;;
20743;SDS011;56303;52.160;-0.428;2023-01-29T14:59:57;6.37;;;4.00;;
20743;SDS011;56303;52.160;-0.428;2023-01-29T15:02:37;6.17;;;4.77;;
20743;SDS011;56303;52.160;-0.428;2023-01-29T15:05:21;5.23;;;4.30;;
20743;SDS011;56303;52.160;-0.428;2023-01-29T15:07:59;5.27;;;4.30;;
20743;SDS011;56303;52.160;-0.428;2023-01-29T15:10:37;5.57;;;4.40;;
20743;SDS011;56303;52.160;-0.428;2023-01-29T15:13:15;4.70;;;3.63;;
20743;SDS011;56303;52.160;-0.428;2023-01-29T15:16:01;7.03;;;4.90;;
20743;SDS011;56303;52.160;-0.428;2023-01-29T15:18:38;6.00;;;4.57;;
20743;SDS011;56303;52.160;-0.428;2023-01-29T15:21:14;5.93;;;4.17;;
20743;SDS011;56303;52.160;-0.428;2023-01-29T15:23:43;6.17;;;4.30;;
20743;SDS011;56303;52.160;-0.428;2023-01-29T15:26:11;7.17;;;5.27;;
20743;SDS011;56303;52.160;-0.428;2023-01-29T15:28:43;5.80;;;4.73;;
20743;SDS011;56303;52.160;-0.428;2023-01-29T15:31:28;6.60;;;5.27;;
20743;SDS011;56303;52.160;-0.428;2023-01-29T15:33:56;6.40;;;5.00;;
20743;SDS011;56303;52.160;-0.428;2023-01-29T15:36:29;7.53;;;5.07;;
20743;SDS011;56303;52.160;-0.428;2023-01-29T15:39:16;5.80;;;5.13;;
20743;SDS011;56303;52.160;-0.428;2023-01-29T15:41:47;6.00;;;5.00;;
20743;SDS011;56303;52.160;-0.428;2023-01-29T15:44:20;8.13;;;5.33;;
20743;SDS011;56303;52.160;-0.428;2023-01-29T15:46:52;7.10;;;5.13;;
20743;SDS011;56303;52.160;-0.428;2023-01-29T15:49:28;6.90;;;5.70;;
20743;SDS011;56303;52.160;-0.428;2023-01-29T15:51:57;7.37;;;5.37;;
20743;SDS011;56303;52.160;-0.428;2023-01-29T15:54:29;7.67;;;5.13;;
20743;SDS011;56303;52.160;-0.428;2023-01-29T15:56:58;6.80;;;5.07;;
20743;SDS011;56303;52.160;-0.428;2023-01-29T15:59:34;5.73;;;4.97;;
20743;SDS011;56303;52.160;-0.428;2023-01-29T16:05:04;6.57;;;5.23;;
20743;SDS011;56303;52.160;-0.428;2023-01-29T16:07:43;6.80;;;5.20;;
20743;SDS011;56303;52.160;-0.428;2023-01-29T16:10:18;5.70;;;4.70;;
20743;SDS011;56303;52.160;-0.428;2023-01-29T16:12:56;5.83;;;4.40;;
20743;SDS011;56303;52.160;-0.428;2023-01-29T16:15:28;6.80;;;5.17;;
20743;SDS011;56303;52.160;-0.428;2023-01-29T16:17:58;5.70;;;4.20;;
20743;SDS011;56303;52.160;-0.428;2023-01-29T16:20:29;5.43;;;4.50;;
20743;SDS011;56303;52.160;-0.428;2023-01-29T16:22:57;5.50;;;4.23;;
20743;SDS011;56303;52.160;-0.428;2023-01-29T16:25:25;6.17;;;4.80;;
20743;SDS011;56303;52.160;-0.428;2023-01-29T16:27:55;6.30;;;5.00;;
20743;SDS011;56303;52.160;-0.428;2023-01-29T16:30:24;5.50;;;3.80;;
20743;SDS011;56303;52.160;-0.428;2023-01-29T16:32:59;5.73;;;4.20;;
20743;SDS011;56303;52.160;-0.428;2023-01-29T16:35:27;5.53;;;3.70;;
20743;SDS011;56303;52.160;-0.428;2023-01-29T16:37:56;5.60;;;3.53;;
20743;SDS011;56303;52.160;-0.428;2023-01-29T16:40:30;5.07;;;3.40;;
20743;SDS011;56303;52.160;-0.428;2023-01-29T16:46:00;4.37;;;2.87;;
20743;SDS011;56303;52.160;-0.428;2023-01-29T16:48:31;3.77;;;2.57;;
20743;SDS011;56303;52.160;-0.428;2023-01-29T16:51:04;4.17;;;2.80;;
20743;SDS011;56303;52.160;-0.428;2023-01-29T16:53:37;3.60;;;2.50;;
20743;SDS011;56303;52.160;-0.428;2023-01-29T16:56:06;3.17;;;2.53;;
20743;SDS011;56303;52.160;-0.428;2023-01-29T16:58:33;3.23;;;2.47;;
20743;SDS011;56303;52.160;-0.428;2023-01-29T17:01:02;4.03;;;2.77;;
20743;SDS011;56303;52.160;-0.428;2023-01-29T17:03:33;3.83;;;2.90;;
20743;SDS011;56303;52.160;-0.428;2023-01-29T17:06:08;3.47;;;2.40;;
20743;SDS011;56303;52.160;-0.428;2023-01-29T17:08:44;3.87;;;2.63;;
20743;SDS011;56303;52.160;-0.428;2023-01-29T17:11:12;3.27;;;2.60;;
20743;SDS011;56303;52.160;-0.428;2023-01-29T17:13:48;3.97;;;2.17;;
20743;SDS011;56303;52.160;-0.428;2023-01-29T17:18:51;3.00;;;2.00;;
20743;SDS011;56303;52.160;-0.428;2023-01-29T17:21:18;2.90;;;1.90;;
20743;SDS011;56303;52.160;-0.428;2023-01-29T17:23:45;2.90;;;2.30;;
20743;SDS011;56303;52.160;-0.428;2023-01-29T17:26:12;3.77;;;2.20;;
20743;SDS011;56303;52.160;-0.428;2023-01-29T17:28:40;2.80;;;2.10;;
20743;SDS011;56303;52.160;-0.428;2023-01-29T17:31:07;3.60;;;1.87;;